sensor_id;sensor_type;location;lat;lon;timestamp;temperature;humidity
38902;DHT22;24661;53.566;9.910;2023-08-20T00:00:18;18.20;99.90
38902;DHT22;24661;53.566;9.910;2023-08-20T00:02:46;18.20;99.90
38902;DHT22;24661;53.566;9.910;2023-08-20T00:05:12;18.10;99.90
38902;DHT22;24661;53.566;9.910;2023-08-20T00:07:38;18.10;99.90
38902;DHT22;24661;53.566;9.910;2023-08-20T00:10:05;18.10;99.90
38902;DHT22;24661;53.566;9.910;2023-08-20T00:12:31;18.10;99.90
38902;DHT22;24661;53.566;9.910;2023-08-20T00:14:58;18.00;99.90
38902;DHT22;24661;53.566;9.910;2023-08-20T00:17:30;18.00;99.90
38902;DHT22;24661;53.566;9.910;2023-08-20T00:19:57;18.00;99.90
38902;DHT22;24661;53.566;9.910;2023-08-20T00:22:23;18.00;99.90
38902;DHT22;24661;53.566;9.910;2023-08-20T00:24:50;17.90;99.90
38902;DHT22;24661;53.566;9.910;2023-08-20T00:27:18;17.90;99.90
38902;DHT22;24661;53.566;9.910;2023-08-20T00:29:44;17.80;99.90
38902;DHT22;24661;53.566;9.910;2023-08-20T00:32:09;17.80;99.90
38902;DHT22;24661;53.566;9.910;2023-08-20T00:34:35;17.70;99.90
38902;DHT22;24661;53.566;9.910;2023-08-20T00:37:01;17.70;99.90
38902;DHT22;24661;53.566;9.910;2023-08-20T00:39:28;17.60;99.90
38902;DHT22;24661;53.566;9.910;2023-08-20T00:41:54;17.60;99.90
38902;DHT22;24661;53.566;9.910;2023-08-20T00:44:20;17.60;99.90
38902;DHT22;24661;53.566;9.910;2023-08-20T00:46:45;17.60;99.90
38902;DHT22;24661;53.566;9.910;2023-08-20T00:49:11;17.50;99.90
38902;DHT22;24661;53.566;9.910;2023-08-20T00:51:37;17.50;99.90
38902;DHT22;24661;53.566;9.910;2023-08-20T00:54:03;17.50;99.90
38902;DHT22;24661;53.566;9.910;2023-08-20T00:56:29;17.50;99.90
38902;DHT22;24661;53.566;9.910;2023-08-20T00:58:55;17.50;99.90
38902;DHT22;24661;53.566;9.910;2023-08-20T01:01:24;17.40;99.90
38902;DHT22;24661;53.566;9.910;2023-08-20T01:03:50;17.40;99.90
38902;DHT22;24661;53.566;9.910;2023-08-20T01:06:20;17.40;99.90
38902;DHT22;24661;53.566;9.910;2023-08-20T01:08:55;17.30;99.90
38902;DHT22;24661;53.566;9.910;2023-08-20T01:11:30;17.40;99.90
38902;DHT22;24661;53.566;9.910;2023-08-20T01:13:58;17.40;99.90
38902;DHT22;24661;53.566;9.910;2023-08-20T01:16:24;17.30;99.90
38902;DHT22;24661;53.566;9.910;2023-08-20T01:18:50;17.30;99.90
38902;DHT22;24661;53.566;9.910;2023-08-20T01:21:30;17.20;99.90
38902;DHT22;24661;53.566;9.910;2023-08-20T01:29:39;17.20;99.90
38902;DHT22;24661;53.566;9.910;2023-08-20T01:32:05;17.20;99.90
38902;DHT22;24661;53.566;9.910;2023-08-20T01:34:31;17.30;99.90
38902;DHT22;24661;53.566;9.910;2023-08-20T01:36:56;17.20;99.90
38902;DHT22;24661;53.566;9.910;2023-08-20T01:39:22;17.20;99.90
38902;DHT22;24661;53.566;9.910;2023-08-20T01:41:48;17.10;99.90
38902;DHT22;24661;53.566;9.910;2023-08-20T01:44:14;17.10;99.90
38902;DHT22;24661;53.566;9.910;2023-08-20T01:46:40;17.10;99.90
38902;DHT22;24661;53.566;9.910;2023-08-20T01:49:05;17.10;99.90
38902;DHT22;24661;53.566;9.910;2023-08-20T01:51:31;17.00;99.90
38902;DHT22;24661;53.566;9.910;2023-08-20T01:53:56;17.10;99.90
38902;DHT22;24661;53.566;9.910;2023-08-20T01:56:22;17.10;99.90
38902;DHT22;24661;53.566;9.910;2023-08-20T01:58:47;17.00;99.90
38902;DHT22;24661;53.566;9.910;2023-08-20T02:01:13;17.10;99.90
38902;DHT22;24661;53.566;9.910;2023-08-20T02:03:38;17.00;99.90
38902;DHT22;24661;53.566;9.910;2023-08-20T02:06:04;17.10;99.90
38902;DHT22;24661;53.566;9.910;2023-08-20T02:08:30;17.00;99.90
38902;DHT22;24661;53.566;9.910;2023-08-20T02:11:03;17.00;99.90
38902;DHT22;24661;53.566;9.910;2023-08-20T02:13:29;17.00;99.90
38902;DHT22;24661;53.566;9.910;2023-08-20T02:16:01;17.00;99.90
38902;DHT22;24661;53.566;9.910;2023-08-20T02:18:28;17.00;99.90
38902;DHT22;24661;53.566;9.910;2023-08-20T02:20:53;17.00;99.90
38902;DHT22;24661;53.566;9.910;2023-08-20T02:23:19;17.10;99.90
38902;DHT22;24661;53.566;9.910;2023-08-20T02:25:44;17.00;99.90
38902;DHT22;24661;53.566;9.910;2023-08-20T02:28:10;17.00;99.90
38902;DHT22;24661;53.566;9.910;2023-08-20T02:30:44;16.30;99.90
38902;DHT22;24661;53.566;9.910;2023-08-20T02:33:09;17.10;99.90
38902;DHT22;24661;53.566;9.910;2023-08-20T02:35:36;17.10;99.90
38902;DHT22;24661;53.566;9.910;2023-08-20T02:38:02;17.20;99.90
38902;DHT22;24661;53.566;9.910;2023-08-20T02:40:27;17.20;99.90
38902;DHT22;24661;53.566;9.910;2023-08-20T02:42:53;17.10;99.90
38902;DHT22;24661;53.566;9.910;2023-08-20T02:45:19;17.10;99.90
38902;DHT22;24661;53.566;9.910;2023-08-20T02:47:44;17.10;99.90
38902;DHT22;24661;53.566;9.910;2023-08-20T02:50:10;17.10;99.90
38902;DHT22;24661;53.566;9.910;2023-08-20T02:52:36;17.10;99.90
38902;DHT22;24661;53.566;9.910;2023-08-20T02:55:01;17.10;99.90
38902;DHT22;24661;53.566;9.910;2023-08-20T02:57:30;17.00;99.90
38902;DHT22;24661;53.566;9.910;2023-08-20T02:59:55;17.00;99.90
38902;DHT22;24661;53.566;9.910;2023-08-20T03:02:21;17.00;99.90
38902;DHT22;24661;53.566;9.910;2023-08-20T03:04:47;17.00;99.90
38902;DHT22;24661;53.566;9.910;2023-08-20T03:07:12;17.00;99.90
38902;DHT22;24661;53.566;9.910;2023-08-20T03:09:38;17.00;99.90
38902;DHT22;24661;53.566;9.910;2023-08-20T03:12:04;17.00;99.90
38902;DHT22;24661;53.566;9.910;2023-08-20T03:14:29;17.00;99.90
38902;DHT22;24661;53.566;9.910;2023-08-20T03:16:55;17.00;99.90
38902;DHT22;24661;53.566;9.910;2023-08-20T03:19:20;17.00;99.90
38902;DHT22;24661;53.566;9.910;2023-08-20T03:21:46;17.00;99.90
38902;DHT22;24661;53.566;9.910;2023-08-20T03:24:11;17.00;99.90
38902;DHT22;24661;53.566;9.910;2023-08-20T03:26:37;17.10;99.90
38902;DHT22;24661;53.566;9.910;2023-08-20T03:29:03;17.10;99.90
38902;DHT22;24661;53.566;9.910;2023-08-20T03:31:29;17.20;99.90
38902;DHT22;24661;53.566;9.910;2023-08-20T03:33:54;17.30;99.90
38902;DHT22;24661;53.566;9.910;2023-08-20T03:36:20;17.20;99.90
38902;DHT22;24661;53.566;9.910;2023-08-20T03:38:45;17.20;99.90
38902;DHT22;24661;53.566;9.910;2023-08-20T03:41:11;17.20;99.90
38902;DHT22;24661;53.566;9.910;2023-08-20T03:43:37;17.30;99.90
38902;DHT22;24661;53.566;9.910;2023-08-20T03:46:02;17.30;99.90
38902;DHT22;24661;53.566;9.910;2023-08-20T03:48:28;17.30;99.90
38902;DHT22;24661;53.566;9.910;2023-08-20T03:50:54;17.30;99.90
38902;DHT22;24661;53.566;9.910;2023-08-20T03:53:19;17.30;99.90
38902;DHT22;24661;53.566;9.910;2023-08-20T03:55:49;17.30;99.90
38902;DHT22;24661;53.566;9.910;2023-08-20T03:58:15;17.30;99.90
38902;DHT22;24661;53.566;9.910;2023-08-20T04:00:41;17.30;99.90
38902;DHT22;24661;53.566;9.910;2023-08-20T04:03:06;17.40;99.90
38902;DHT22;24661;53.566;9.910;2023-08-20T04:05:38;17.30;99.90
38902;DHT22;24661;53.566;9.910;2023-08-20T04:08:05;17.20;99.90
38902;DHT22;24661;53.566;9.910;2023-08-20T04:10:31;17.30;99.90
38902;DHT22;24661;53.566;9.910;2023-08-20T04:12:58;17.30;99.90
38902;DHT22;24661;53.566;9.910;2023-08-20T04:15:23;17.20;99.90
38902;DHT22;24661;53.566;9.910;2023-08-20T04:17:49;17.10;99.90
38902;DHT22;24661;53.566;9.910;2023-08-20T04:20:15;17.10;99.90
38902;DHT22;24661;53.566;9.910;2023-08-20T04:22:41;17.10;99.90
38902;DHT22;24661;53.566;9.910;2023-08-20T04:25:07;17.20;99.90
38902;DHT22;24661;53.566;9.910;2023-08-20T04:27:33;17.20;99.90
38902;DHT22;24661;53.566;9.910;2023-08-20T04:29:58;17.10;99.90
38902;DHT22;24661;53.566;9.910;2023-08-20T04:32:24;17.10;99.90
38902;DHT22;24661;53.566;9.910;2023-08-20T04:34:49;18.20;99.90
38902;DHT22;24661;53.566;9.910;2023-08-20T04:37:20;17.10;99.90
38902;DHT22;24661;53.566;9.910;2023-08-20T04:39:45;17.10;99.90
38902;DHT22;24661;53.566;9.910;2023-08-20T04:42:11;17.10;99.90
38902;DHT22;24661;53.566;9.910;2023-08-20T04:44:37;17.10;99.90
38902;DHT22;24661;53.566;9.910;2023-08-20T04:47:02;17.10;99.90
38902;DHT22;24661;53.566;9.910;2023-08-20T04:49:28;17.00;99.90
38902;DHT22;24661;53.566;9.910;2023-08-20T04:51:55;17.00;99.90
38902;DHT22;24661;53.566;9.910;2023-08-20T04:54:21;17.10;99.90
38902;DHT22;24661;53.566;9.910;2023-08-20T04:56:46;17.00;99.90
38902;DHT22;24661;53.566;9.910;2023-08-20T04:59:12;17.10;99.90
38902;DHT22;24661;53.566;9.910;2023-08-20T05:01:38;17.00;99.90
38902;DHT22;24661;53.566;9.910;2023-08-20T05:04:04;17.00;99.90
38902;DHT22;24661;53.566;9.910;2023-08-20T05:06:30;17.00;99.90
38902;DHT22;24661;53.566;9.910;2023-08-20T05:08:56;17.00;99.90
38902;DHT22;24661;53.566;9.910;2023-08-20T05:11:21;17.00;99.90
38902;DHT22;24661;53.566;9.910;2023-08-20T05:13:49;17.00;99.90
38902;DHT22;24661;53.566;9.910;2023-08-20T05:16:15;17.00;99.90
38902;DHT22;24661;53.566;9.910;2023-08-20T05:18:41;17.00;99.90
38902;DHT22;24661;53.566;9.910;2023-08-20T05:21:07;17.00;99.90
38902;DHT22;24661;53.566;9.910;2023-08-20T05:23:33;17.00;99.90
38902;DHT22;24661;53.566;9.910;2023-08-20T05:25:58;17.10;99.90
38902;DHT22;24661;53.566;9.910;2023-08-20T05:28:25;17.10;99.90
38902;DHT22;24661;53.566;9.910;2023-08-20T05:30:57;17.20;99.90
38902;DHT22;24661;53.566;9.910;2023-08-20T05:33:23;15.70;99.90
38902;DHT22;24661;53.566;9.910;2023-08-20T05:35:49;17.30;99.90
38902;DHT22;24661;53.566;9.910;2023-08-20T05:38:15;17.40;99.90
38902;DHT22;24661;53.566;9.910;2023-08-20T05:40:40;17.40;99.90
38902;DHT22;24661;53.566;9.910;2023-08-20T05:43:06;17.40;99.90
38902;DHT22;24661;53.566;9.910;2023-08-20T05:45:32;17.50;99.90
38902;DHT22;24661;53.566;9.910;2023-08-20T05:47:58;17.50;99.90
38902;DHT22;24661;53.566;9.910;2023-08-20T05:50:23;17.40;99.90
38902;DHT22;24661;53.566;9.910;2023-08-20T05:52:49;17.40;99.90
38902;DHT22;24661;53.566;9.910;2023-08-20T05:55:15;17.50;99.90
38902;DHT22;24661;53.566;9.910;2023-08-20T05:57:41;17.40;99.90
38902;DHT22;24661;53.566;9.910;2023-08-20T06:00:09;16.80;99.90
38902;DHT22;24661;53.566;9.910;2023-08-20T06:02:34;17.50;99.90
38902;DHT22;24661;53.566;9.910;2023-08-20T06:05:00;17.60;99.90
38902;DHT22;24661;53.566;9.910;2023-08-20T06:07:25;17.60;99.90
38902;DHT22;24661;53.566;9.910;2023-08-20T06:09:51;17.70;99.90
38902;DHT22;24661;53.566;9.910;2023-08-20T06:12:17;17.80;99.90
38902;DHT22;24661;53.566;9.910;2023-08-20T06:14:43;17.80;99.90
38902;DHT22;24661;53.566;9.910;2023-08-20T06:17:08;17.80;99.90
38902;DHT22;24661;53.566;9.910;2023-08-20T06:19:34;17.60;99.90
38902;DHT22;24661;53.566;9.910;2023-08-20T06:21:59;17.70;99.90
38902;DHT22;24661;53.566;9.910;2023-08-20T06:24:25;17.70;99.90
38902;DHT22;24661;53.566;9.910;2023-08-20T06:26:51;17.80;99.90
38902;DHT22;24661;53.566;9.910;2023-08-20T06:29:17;17.90;99.90
38902;DHT22;24661;53.566;9.910;2023-08-20T06:31:43;17.90;99.90
38902;DHT22;24661;53.566;9.910;2023-08-20T06:34:08;17.90;99.90
38902;DHT22;24661;53.566;9.910;2023-08-20T06:36:35;17.90;99.90
38902;DHT22;24661;53.566;9.910;2023-08-20T06:39:00;18.00;99.90
38902;DHT22;24661;53.566;9.910;2023-08-20T06:41:26;18.00;99.90
38902;DHT22;24661;53.566;9.910;2023-08-20T06:43:52;18.00;99.90
38902;DHT22;24661;53.566;9.910;2023-08-20T06:46:17;18.10;99.90
38902;DHT22;24661;53.566;9.910;2023-08-20T06:48:43;18.10;99.90
38902;DHT22;24661;53.566;9.910;2023-08-20T06:51:15;18.20;99.90
38902;DHT22;24661;53.566;9.910;2023-08-20T06:53:41;18.20;99.90
38902;DHT22;24661;53.566;9.910;2023-08-20T06:56:08;18.10;99.90
38902;DHT22;24661;53.566;9.910;2023-08-20T06:58:34;18.30;99.90
38902;DHT22;24661;53.566;9.910;2023-08-20T07:01:00;17.60;99.90
38902;DHT22;24661;53.566;9.910;2023-08-20T07:03:35;18.60;99.90
38902;DHT22;24661;53.566;9.910;2023-08-20T07:06:01;18.70;99.90
38902;DHT22;24661;53.566;9.910;2023-08-20T07:08:27;18.90;99.90
38902;DHT22;24661;53.566;9.910;2023-08-20T07:10:52;19.00;99.90
38902;DHT22;24661;53.566;9.910;2023-08-20T07:13:18;19.10;99.90
38902;DHT22;24661;53.566;9.910;2023-08-20T07:15:43;19.20;99.90
38902;DHT22;24661;53.566;9.910;2023-08-20T07:18:09;19.20;99.90
38902;DHT22;24661;53.566;9.910;2023-08-20T07:20:38;19.20;99.90
38902;DHT22;24661;53.566;9.910;2023-08-20T07:23:04;19.20;99.90
38902;DHT22;24661;53.566;9.910;2023-08-20T07:25:30;19.10;99.90
38902;DHT22;24661;53.566;9.910;2023-08-20T07:27:56;19.10;99.90
38902;DHT22;24661;53.566;9.910;2023-08-20T07:30:25;18.90;99.90
38902;DHT22;24661;53.566;9.910;2023-08-20T07:32:51;18.90;99.90
38902;DHT22;24661;53.566;9.910;2023-08-20T07:35:16;18.90;99.90
38902;DHT22;24661;53.566;9.910;2023-08-20T07:37:42;19.10;99.90
38902;DHT22;24661;53.566;9.910;2023-08-20T07:40:08;19.40;99.90
38902;DHT22;24661;53.566;9.910;2023-08-20T07:42:34;19.60;99.90
38902;DHT22;24661;53.566;9.910;2023-08-20T07:45:00;19.90;99.90
38902;DHT22;24661;53.566;9.910;2023-08-20T07:47:26;20.00;99.90
38902;DHT22;24661;53.566;9.910;2023-08-20T07:49:54;20.10;99.90
38902;DHT22;24661;53.566;9.910;2023-08-20T07:52:20;20.20;99.90
38902;DHT22;24661;53.566;9.910;2023-08-20T07:54:45;20.20;99.90
38902;DHT22;24661;53.566;9.910;2023-08-20T07:57:11;20.70;99.90
38902;DHT22;24661;53.566;9.910;2023-08-20T07:59:38;20.40;99.90
38902;DHT22;24661;53.566;9.910;2023-08-20T08:02:03;20.40;99.90
38902;DHT22;24661;53.566;9.910;2023-08-20T08:04:29;20.60;99.90
38902;DHT22;24661;53.566;9.910;2023-08-20T08:06:55;20.50;99.90
38902;DHT22;24661;53.566;9.910;2023-08-20T08:09:26;20.40;99.90
38902;DHT22;24661;53.566;9.910;2023-08-20T08:11:52;20.30;99.90
38902;DHT22;24661;53.566;9.910;2023-08-20T08:14:18;20.40;99.90
38902;DHT22;24661;53.566;9.910;2023-08-20T08:16:45;20.30;99.90
38902;DHT22;24661;53.566;9.910;2023-08-20T08:19:11;20.20;99.90
38902;DHT22;24661;53.566;9.910;2023-08-20T08:21:37;20.40;99.90
38902;DHT22;24661;53.566;9.910;2023-08-20T08:24:04;20.40;99.90
38902;DHT22;24661;53.566;9.910;2023-08-20T08:26:30;20.40;99.90
38902;DHT22;24661;53.566;9.910;2023-08-20T08:28:56;20.50;99.90
38902;DHT22;24661;53.566;9.910;2023-08-20T08:31:22;20.50;99.90
38902;DHT22;24661;53.566;9.910;2023-08-20T08:33:48;20.60;99.90
38902;DHT22;24661;53.566;9.910;2023-08-20T08:36:14;20.70;99.90
38902;DHT22;24661;53.566;9.910;2023-08-20T08:38:42;20.70;99.90
38902;DHT22;24661;53.566;9.910;2023-08-20T08:41:10;20.80;99.90
38902;DHT22;24661;53.566;9.910;2023-08-20T08:43:38;20.80;99.90
38902;DHT22;24661;53.566;9.910;2023-08-20T08:46:07;20.90;99.90
38902;DHT22;24661;53.566;9.910;2023-08-20T08:48:34;21.00;99.90
38902;DHT22;24661;53.566;9.910;2023-08-20T08:51:01;21.00;99.90
38902;DHT22;24661;53.566;9.910;2023-08-20T08:53:26;21.00;99.90
38902;DHT22;24661;53.566;9.910;2023-08-20T08:55:52;21.10;99.90
38902;DHT22;24661;53.566;9.910;2023-08-20T08:58:18;21.10;99.90
38902;DHT22;24661;53.566;9.910;2023-08-20T09:00:43;21.20;99.90
38902;DHT22;24661;53.566;9.910;2023-08-20T09:03:09;21.30;99.90
38902;DHT22;24661;53.566;9.910;2023-08-20T09:05:48;21.30;99.90
38902;DHT22;24661;53.566;9.910;2023-08-20T09:08:27;21.40;99.90
38902;DHT22;24661;53.566;9.910;2023-08-20T09:10:56;21.40;99.90
38902;DHT22;24661;53.566;9.910;2023-08-20T09:13:24;21.50;99.90
38902;DHT22;24661;53.566;9.910;2023-08-20T09:15:53;21.60;99.90
38902;DHT22;24661;53.566;9.910;2023-08-20T09:18:19;21.70;99.90
38902;DHT22;24661;53.566;9.910;2023-08-20T09:20:47;21.90;99.90
38902;DHT22;24661;53.566;9.910;2023-08-20T09:23:13;21.90;99.90
38902;DHT22;24661;53.566;9.910;2023-08-20T09:25:39;22.00;99.90
38902;DHT22;24661;53.566;9.910;2023-08-20T09:28:05;22.00;99.90
38902;DHT22;24661;53.566;9.910;2023-08-20T09:30:31;22.00;99.90
38902;DHT22;24661;53.566;9.910;2023-08-20T09:33:12;22.00;99.90
38902;DHT22;24661;53.566;9.910;2023-08-20T09:35:49;22.20;99.90
38902;DHT22;24661;53.566;9.910;2023-08-20T09:38:14;22.20;99.90
38902;DHT22;24661;53.566;9.910;2023-08-20T09:40:40;22.30;99.90
38902;DHT22;24661;53.566;9.910;2023-08-20T09:43:07;22.20;99.90
38902;DHT22;24661;53.566;9.910;2023-08-20T09:45:34;22.40;99.90
38902;DHT22;24661;53.566;9.910;2023-08-20T09:48:05;22.40;99.90
38902;DHT22;24661;53.566;9.910;2023-08-20T09:50:33;22.40;99.90
38902;DHT22;24661;53.566;9.910;2023-08-20T09:53:33;22.40;99.90
38902;DHT22;24661;53.566;9.910;2023-08-20T09:56:09;22.50;99.90
38902;DHT22;24661;53.566;9.910;2023-08-20T09:58:38;22.60;99.90
38902;DHT22;24661;53.566;9.910;2023-08-20T10:01:06;22.70;99.90
38902;DHT22;24661;53.566;9.910;2023-08-20T10:03:32;22.90;99.90
38902;DHT22;24661;53.566;9.910;2023-08-20T10:05:58;22.90;99.90
38902;DHT22;24661;53.566;9.910;2023-08-20T10:08:26;23.00;99.90
38902;DHT22;24661;53.566;9.910;2023-08-20T10:10:52;23.10;99.90
38902;DHT22;24661;53.566;9.910;2023-08-20T10:13:18;23.00;99.90
38902;DHT22;24661;53.566;9.910;2023-08-20T10:15:44;23.00;99.90
38902;DHT22;24661;53.566;9.910;2023-08-20T10:18:11;23.00;99.90
38902;DHT22;24661;53.566;9.910;2023-08-20T10:20:39;23.10;99.90
38902;DHT22;24661;53.566;9.910;2023-08-20T10:23:06;23.20;99.90
38902;DHT22;24661;53.566;9.910;2023-08-20T10:25:40;23.50;99.90
38902;DHT22;24661;53.566;9.910;2023-08-20T10:28:23;23.50;99.90
38902;DHT22;24661;53.566;9.910;2023-08-20T10:31:16;23.70;99.90
38902;DHT22;24661;53.566;9.910;2023-08-20T10:33:50;23.90;99.90
38902;DHT22;24661;53.566;9.910;2023-08-20T10:36:21;23.90;99.90
38902;DHT22;24661;53.566;9.910;2023-08-20T10:38:49;23.90;99.90
38902;DHT22;24661;53.566;9.910;2023-08-20T10:41:15;23.80;99.90
38902;DHT22;24661;53.566;9.910;2023-08-20T10:43:47;23.70;99.90
38902;DHT22;24661;53.566;9.910;2023-08-20T10:46:24;23.70;99.90
38902;DHT22;24661;53.566;9.910;2023-08-20T10:48:58;23.70;99.90
38902;DHT22;24661;53.566;9.910;2023-08-20T10:51:28;23.80;99.90
38902;DHT22;24661;53.566;9.910;2023-08-20T10:56:47;24.00;99.90
38902;DHT22;24661;53.566;9.910;2023-08-20T10:59:19;24.10;99.90
38902;DHT22;24661;53.566;9.910;2023-08-20T11:01:48;24.40;99.90
38902;DHT22;24661;53.566;9.910;2023-08-20T11:04:20;24.30;99.90
38902;DHT22;24661;53.566;9.910;2023-08-20T11:06:50;24.40;99.90
38902;DHT22;24661;53.566;9.910;2023-08-20T11:09:17;24.50;99.90
38902;DHT22;24661;53.566;9.910;2023-08-20T11:11:43;24.40;99.90
38902;DHT22;24661;53.566;9.910;2023-08-20T11:14:13;24.40;99.90
38902;DHT22;24661;53.566;9.910;2023-08-20T11:16:40;24.40;99.90
38902;DHT22;24661;53.566;9.910;2023-08-20T11:19:06;24.20;99.90
38902;DHT22;24661;53.566;9.910;2023-08-20T11:21:43;24.10;99.90
38902;DHT22;24661;53.566;9.910;2023-08-20T11:24:10;24.10;99.90
38902;DHT22;24661;53.566;9.910;2023-08-20T11:26:38;24.20;99.90
38902;DHT22;24661;53.566;9.910;2023-08-20T11:29:11;24.20;99.90
38902;DHT22;24661;53.566;9.910;2023-08-20T11:31:38;24.40;99.90
38902;DHT22;24661;53.566;9.910;2023-08-20T11:34:05;24.40;99.90
38902;DHT22;24661;53.566;9.910;2023-08-20T11:36:31;24.50;99.90
38902;DHT22;24661;53.566;9.910;2023-08-20T11:38:57;24.50;99.90
38902;DHT22;24661;53.566;9.910;2023-08-20T11:41:24;24.60;99.90
38902;DHT22;24661;53.566;9.910;2023-08-20T11:43:51;24.80;99.90
38902;DHT22;24661;53.566;9.910;2023-08-20T11:46:22;24.90;99.90
38902;DHT22;24661;53.566;9.910;2023-08-20T11:49:08;25.10;99.90
38902;DHT22;24661;53.566;9.910;2023-08-20T11:51:49;25.20;99.90
38902;DHT22;24661;53.566;9.910;2023-08-20T11:54:19;25.20;99.90
38902;DHT22;24661;53.566;9.910;2023-08-20T11:56:46;25.30;99.90
38902;DHT22;24661;53.566;9.910;2023-08-20T11:59:13;25.30;99.90
38902;DHT22;24661;53.566;9.910;2023-08-20T12:01:39;25.30;99.90
38902;DHT22;24661;53.566;9.910;2023-08-20T12:04:06;25.20;99.90
38902;DHT22;24661;53.566;9.910;2023-08-20T12:06:33;25.10;99.90
38902;DHT22;24661;53.566;9.910;2023-08-20T12:09:00;25.10;99.90
38902;DHT22;24661;53.566;9.910;2023-08-20T12:11:30;25.10;99.90
38902;DHT22;24661;53.566;9.910;2023-08-20T12:13:56;25.20;99.90
38902;DHT22;24661;53.566;9.910;2023-08-20T12:16:22;25.30;99.90
38902;DHT22;24661;53.566;9.910;2023-08-20T12:18:49;25.30;99.90
38902;DHT22;24661;53.566;9.910;2023-08-20T12:21:15;25.50;99.90
38902;DHT22;24661;53.566;9.910;2023-08-20T12:23:41;25.50;99.90
38902;DHT22;24661;53.566;9.910;2023-08-20T12:26:07;25.60;99.90
38902;DHT22;24661;53.566;9.910;2023-08-20T12:28:33;25.60;99.90
38902;DHT22;24661;53.566;9.910;2023-08-20T12:30:59;25.80;99.90
38902;DHT22;24661;53.566;9.910;2023-08-20T12:33:25;26.90;99.90
38902;DHT22;24661;53.566;9.910;2023-08-20T12:35:54;25.90;99.90
38902;DHT22;24661;53.566;9.910;2023-08-20T12:38:20;26.00;99.90
38902;DHT22;24661;53.566;9.910;2023-08-20T12:40:46;26.00;99.90
38902;DHT22;24661;53.566;9.910;2023-08-20T12:43:11;26.10;99.90
38902;DHT22;24661;53.566;9.910;2023-08-20T12:45:37;26.00;99.90
38902;DHT22;24661;53.566;9.910;2023-08-20T12:48:04;26.20;99.90
38902;DHT22;24661;53.566;9.910;2023-08-20T12:50:30;26.10;99.90
38902;DHT22;24661;53.566;9.910;2023-08-20T12:52:55;26.10;99.90
38902;DHT22;24661;53.566;9.910;2023-08-20T12:55:21;25.50;99.90
38902;DHT22;24661;53.566;9.910;2023-08-20T12:57:56;26.20;99.90
38902;DHT22;24661;53.566;9.910;2023-08-20T13:00:23;26.30;99.90
38902;DHT22;24661;53.566;9.910;2023-08-20T13:02:51;26.50;99.90
38902;DHT22;24661;53.566;9.910;2023-08-20T13:05:17;26.30;99.90
38902;DHT22;24661;53.566;9.910;2023-08-20T13:07:43;25.00;99.90
38902;DHT22;24661;53.566;9.910;2023-08-20T13:10:09;26.10;99.90
38902;DHT22;24661;53.566;9.910;2023-08-20T13:12:36;26.10;99.90
38902;DHT22;24661;53.566;9.910;2023-08-20T13:15:03;26.10;99.90
38902;DHT22;24661;53.566;9.910;2023-08-20T13:17:29;26.00;99.90
38902;DHT22;24661;53.566;9.910;2023-08-20T13:19:55;25.90;99.90
38902;DHT22;24661;53.566;9.910;2023-08-20T13:22:21;25.70;99.90
38902;DHT22;24661;53.566;9.910;2023-08-20T13:24:47;25.60;99.90
38902;DHT22;24661;53.566;9.910;2023-08-20T13:27:13;25.50;99.90
38902;DHT22;24661;53.566;9.910;2023-08-20T13:29:43;25.50;99.90
38902;DHT22;24661;53.566;9.910;2023-08-20T13:32:08;25.70;99.90
38902;DHT22;24661;53.566;9.910;2023-08-20T13:34:34;25.90;99.90
38902;DHT22;24661;53.566;9.910;2023-08-20T13:36:59;26.00;99.90
38902;DHT22;24661;53.566;9.910;2023-08-20T13:39:25;25.90;99.90
38902;DHT22;24661;53.566;9.910;2023-08-20T13:41:51;25.70;99.90
38902;DHT22;24661;53.566;9.910;2023-08-20T13:44:16;25.60;99.90
38902;DHT22;24661;53.566;9.910;2023-08-20T13:46:42;25.80;99.90
38902;DHT22;24661;53.566;9.910;2023-08-20T13:49:08;26.00;99.90
38902;DHT22;24661;53.566;9.910;2023-08-20T13:51:33;25.90;99.90
38902;DHT22;24661;53.566;9.910;2023-08-20T13:53:59;25.80;99.90
38902;DHT22;24661;53.566;9.910;2023-08-20T13:56:25;25.70;99.90
38902;DHT22;24661;53.566;9.910;2023-08-20T13:58:52;25.80;99.90
38902;DHT22;24661;53.566;9.910;2023-08-20T14:01:18;25.80;99.90
38902;DHT22;24661;53.566;9.910;2023-08-20T14:03:43;25.80;99.90
38902;DHT22;24661;53.566;9.910;2023-08-20T14:06:09;25.80;99.90
38902;DHT22;24661;53.566;9.910;2023-08-20T14:08:34;25.80;99.90
38902;DHT22;24661;53.566;9.910;2023-08-20T14:11:00;25.60;99.90
38902;DHT22;24661;53.566;9.910;2023-08-20T14:13:26;25.70;99.90
38902;DHT22;24661;53.566;9.910;2023-08-20T14:15:51;25.90;99.90
38902;DHT22;24661;53.566;9.910;2023-08-20T14:18:17;25.80;99.90
38902;DHT22;24661;53.566;9.910;2023-08-20T14:20:43;26.00;99.90
38902;DHT22;24661;53.566;9.910;2023-08-20T14:23:08;26.10;99.90
38902;DHT22;24661;53.566;9.910;2023-08-20T14:25:34;26.10;99.90
38902;DHT22;24661;53.566;9.910;2023-08-20T14:28:00;26.10;99.90
38902;DHT22;24661;53.566;9.910;2023-08-20T14:30:25;26.00;99.90
38902;DHT22;24661;53.566;9.910;2023-08-20T14:32:52;25.90;99.90
38902;DHT22;24661;53.566;9.910;2023-08-20T14:35:19;25.80;99.90
38902;DHT22;24661;53.566;9.910;2023-08-20T14:37:45;25.80;99.90
38902;DHT22;24661;53.566;9.910;2023-08-20T14:40:11;25.70;99.90
38902;DHT22;24661;53.566;9.910;2023-08-20T14:42:37;25.80;99.90
38902;DHT22;24661;53.566;9.910;2023-08-20T14:45:02;25.80;99.90
38902;DHT22;24661;53.566;9.910;2023-08-20T14:47:29;25.80;99.90
38902;DHT22;24661;53.566;9.910;2023-08-20T14:49:55;25.60;99.90
38902;DHT22;24661;53.566;9.910;2023-08-20T14:52:20;25.50;99.90
38902;DHT22;24661;53.566;9.910;2023-08-20T14:54:46;25.50;99.90
38902;DHT22;24661;53.566;9.910;2023-08-20T14:57:11;25.50;99.90
38902;DHT22;24661;53.566;9.910;2023-08-20T14:59:37;25.60;99.90
38902;DHT22;24661;53.566;9.910;2023-08-20T15:02:03;25.60;99.90
38902;DHT22;24661;53.566;9.910;2023-08-20T15:04:28;25.60;99.90
38902;DHT22;24661;53.566;9.910;2023-08-20T15:06:54;25.50;99.90
38902;DHT22;24661;53.566;9.910;2023-08-20T15:09:19;25.50;99.90
38902;DHT22;24661;53.566;9.910;2023-08-20T15:11:46;25.50;99.90
38902;DHT22;24661;53.566;9.910;2023-08-20T15:14:11;25.40;99.90
38902;DHT22;24661;53.566;9.910;2023-08-20T15:16:37;25.40;99.90
38902;DHT22;24661;53.566;9.910;2023-08-20T15:19:02;25.50;99.90
38902;DHT22;24661;53.566;9.910;2023-08-20T15:21:28;25.30;99.90
38902;DHT22;24661;53.566;9.910;2023-08-20T15:23:54;25.20;99.90
38902;DHT22;24661;53.566;9.910;2023-08-20T15:26:19;25.00;99.90
38902;DHT22;24661;53.566;9.910;2023-08-20T15:28:45;25.50;99.90
38902;DHT22;24661;53.566;9.910;2023-08-20T15:31:11;24.90;99.90
38902;DHT22;24661;53.566;9.910;2023-08-20T15:33:36;24.90;99.90
38902;DHT22;24661;53.566;9.910;2023-08-20T15:36:02;24.80;99.90